sensor_id;sensor_type;location;lat;lon;timestamp;pressure;altitude;pressure_sealevel;temperature;humidity
77351;BME280;66420;50.246;14.320;2023-05-29T00:02:24;99829.47;;;10.56;72.16
77351;BME280;66420;50.246;14.320;2023-05-29T00:05:12;99829.84;;;10.50;72.82
77351;BME280;66420;50.246;14.320;2023-05-29T00:07:58;99828.22;;;10.35;72.72
77351;BME280;66420;50.246;14.320;2023-05-29T00:10:43;99830.44;;;10.33;73.47
77351;BME280;66420;50.246;14.320;2023-05-29T00:13:27;99835.06;;;10.19;73.92
77351;BME280;66420;50.246;14.320;2023-05-29T00:16:12;99842.91;;;10.07;73.77
77351;BME280;66420;50.246;14.320;2023-05-29T00:18:56;99840.75;;;10.04;73.49
77351;BME280;66420;50.246;14.320;2023-05-29T00:21:42;99837.50;;;10.02;74.29
77351;BME280;66420;50.246;14.320;2023-05-29T00:24:27;99835.28;;;10.04;73.86
77351;BME280;66420;50.246;14.320;2023-05-29T00:27:12;99842.44;;;10.00;74.42
77351;BME280;66420;50.246;14.320;2023-05-29T00:29:57;99831.75;;;10.03;73.74
77351;BME280;66420;50.246;14.320;2023-05-29T00:32:41;99843.88;;;9.97;73.91
77351;BME280;66420;50.246;14.320;2023-05-29T00:35:26;99832.72;;;9.94;73.35
77351;BME280;66420;50.246;14.320;2023-05-29T00:38:10;99839.28;;;9.93;73.44
77351;BME280;66420;50.246;14.320;2023-05-29T00:40:55;99834.50;;;9.85;74.44
77351;BME280;66420;50.246;14.320;2023-05-29T00:43:40;99825.78;;;9.83;74.17
77351;BME280;66420;50.246;14.320;2023-05-29T00:46:25;99816.53;;;9.97;73.31
77351;BME280;66420;50.246;14.320;2023-05-29T00:49:10;99824.59;;;9.89;73.62
77351;BME280;66420;50.246;14.320;2023-05-29T00:51:59;99812.91;;;9.83;73.80
77351;BME280;66420;50.246;14.320;2023-05-29T00:54:47;99813.34;;;9.90;74.05
77351;BME280;66420;50.246;14.320;2023-05-29T00:57:33;99818.69;;;9.82;73.74
77351;BME280;66420;50.246;14.320;2023-05-29T01:00:18;99815.88;;;9.87;73.24
77351;BME280;66420;50.246;14.320;2023-05-29T01:03:05;99814.25;;;9.86;72.46
77351;BME280;66420;50.246;14.320;2023-05-29T01:05:50;99801.03;;;9.93;73.01
77351;BME280;66420;50.246;14.320;2023-05-29T01:08:37;99802.28;;;9.82;73.35
77351;BME280;66420;50.246;14.320;2023-05-29T01:11:39;99802.00;;;9.83;73.77
77351;BME280;66420;50.246;14.320;2023-05-29T01:14:57;99808.34;;;9.60;74.26
77351;BME280;66420;50.246;14.320;2023-05-29T01:26:58;99811.91;;;9.60;73.44
77351;BME280;66420;50.246;14.320;2023-05-29T01:29:43;99811.69;;;9.57;73.26
77351;BME280;66420;50.246;14.320;2023-05-29T01:32:30;99818.78;;;9.39;73.64
77351;BME280;66420;50.246;14.320;2023-05-29T01:35:15;99819.03;;;9.19;75.54
77351;BME280;66420;50.246;14.320;2023-05-29T01:37:59;99826.91;;;9.02;75.93
77351;BME280;66420;50.246;14.320;2023-05-29T01:40:44;99831.78;;;9.05;75.28
77351;BME280;66420;50.246;14.320;2023-05-29T01:43:29;99828.38;;;9.13;74.32
77351;BME280;66420;50.246;14.320;2023-05-29T01:46:15;99823.88;;;9.03;74.87
77351;BME280;66420;50.246;14.320;2023-05-29T01:49:00;99820.75;;;9.15;74.16
77351;BME280;66420;50.246;14.320;2023-05-29T01:51:45;99821.22;;;9.17;74.91
77351;BME280;66420;50.246;14.320;2023-05-29T01:54:30;99816.31;;;9.19;73.79
77351;BME280;66420;50.246;14.320;2023-05-29T01:57:15;99811.38;;;9.21;73.89
77351;BME280;66420;50.246;14.320;2023-05-29T02:00:03;99797.84;;;9.11;74.67
77351;BME280;66420;50.246;14.320;2023-05-29T02:02:52;99800.19;;;8.99;75.50
77351;BME280;66420;50.246;14.320;2023-05-29T02:05:37;99798.41;;;9.08;75.33
77351;BME280;66420;50.246;14.320;2023-05-29T02:08:21;99804.94;;;9.12;74.83
77351;BME280;66420;50.246;14.320;2023-05-29T02:11:07;99803.00;;;8.94;74.92
77351;BME280;66420;50.246;14.320;2023-05-29T02:13:51;99796.47;;;8.89;74.11
77351;BME280;66420;50.246;14.320;2023-05-29T02:16:37;99799.84;;;8.81;75.63
77351;BME280;66420;50.246;14.320;2023-05-29T02:19:21;99794.75;;;8.75;75.41
77351;BME280;66420;50.246;14.320;2023-05-29T02:22:10;99794.97;;;8.78;75.09
77351;BME280;66420;50.246;14.320;2023-05-29T02:24:54;99789.19;;;8.61;75.56
77351;BME280;66420;50.246;14.320;2023-05-29T02:27:40;99789.34;;;8.70;74.65
77351;BME280;66420;50.246;14.320;2023-05-29T02:30:24;99785.81;;;8.69;74.98
77351;BME280;66420;50.246;14.320;2023-05-29T02:33:10;99785.47;;;8.52;74.89
77351;BME280;66420;50.246;14.320;2023-05-29T02:35:54;99797.00;;;8.44;75.89
77351;BME280;66420;50.246;14.320;2023-05-29T02:38:39;99793.81;;;8.37;75.47
77351;BME280;66420;50.246;14.320;2023-05-29T02:41:24;99793.03;;;8.31;76.43
77351;BME280;66420;50.246;14.320;2023-05-29T02:44:08;99790.53;;;8.35;75.81
77351;BME280;66420;50.246;14.320;2023-05-29T02:46:53;99792.66;;;8.43;75.41
77351;BME280;66420;50.246;14.320;2023-05-29T02:49:38;99798.22;;;8.33;75.13
77351;BME280;66420;50.246;14.320;2023-05-29T02:52:22;99797.03;;;8.39;75.12
77351;BME280;66420;50.246;14.320;2023-05-29T02:55:07;99797.63;;;8.36;75.37
77351;BME280;66420;50.246;14.320;2023-05-29T02:57:52;99792.22;;;8.26;75.58
77351;BME280;66420;50.246;14.320;2023-05-29T03:00:39;99793.88;;;8.27;76.28
77351;BME280;66420;50.246;14.320;2023-05-29T03:03:24;99785.44;;;8.23;75.86
77351;BME280;66420;50.246;14.320;2023-05-29T03:06:09;99791.41;;;8.25;75.60
77351;BME280;66420;50.246;14.320;2023-05-29T03:08:54;99789.84;;;8.19;75.46
77351;BME280;66420;50.246;14.320;2023-05-29T03:11:39;99790.09;;;8.23;76.09
77351;BME280;66420;50.246;14.320;2023-05-29T03:14:25;99790.63;;;8.25;75.33
77351;BME280;66420;50.246;14.320;2023-05-29T03:17:11;99799.31;;;8.32;75.09
77351;BME280;66420;50.246;14.320;2023-05-29T03:19:56;99801.75;;;7.99;76.25
77351;BME280;66420;50.246;14.320;2023-05-29T03:22:42;99807.97;;;8.05;76.34
77351;BME280;66420;50.246;14.320;2023-05-29T03:25:28;99803.03;;;8.07;75.22
77351;BME280;66420;50.246;14.320;2023-05-29T03:28:12;99804.44;;;8.05;75.80
77351;BME280;66420;50.246;14.320;2023-05-29T03:30:57;99816.66;;;8.07;75.28
77351;BME280;66420;50.246;14.320;2023-05-29T03:33:42;99811.56;;;8.00;76.05
77351;BME280;66420;50.246;14.320;2023-05-29T03:36:26;99820.50;;;8.06;75.57
77351;BME280;66420;50.246;14.320;2023-05-29T03:39:11;99821.25;;;8.12;75.32
77351;BME280;66420;50.246;14.320;2023-05-29T03:41:56;99825.56;;;8.18;75.02
77351;BME280;66420;50.246;14.320;2023-05-29T03:44:41;99820.63;;;8.25;74.51
77351;BME280;66420;50.246;14.320;2023-05-29T03:47:26;99835.22;;;8.05;75.50
77351;BME280;66420;50.246;14.320;2023-05-29T03:50:10;99840.34;;;8.12;75.86
77351;BME280;66420;50.246;14.320;2023-05-29T03:52:58;99835.97;;;8.16;74.56
77351;BME280;66420;50.246;14.320;2023-05-29T03:55:43;99829.69;;;8.15;75.13
77351;BME280;66420;50.246;14.320;2023-05-29T03:58:27;99837.03;;;8.20;74.90
77351;BME280;66420;50.246;14.320;2023-05-29T04:01:12;99836.72;;;8.21;74.51
77351;BME280;66420;50.246;14.320;2023-05-29T04:03:57;99838.63;;;8.21;74.34
77351;BME280;66420;50.246;14.320;2023-05-29T04:06:42;99839.13;;;8.28;74.09
77351;BME280;66420;50.246;14.320;2023-05-29T04:09:26;99833.63;;;8.38;73.75
77351;BME280;66420;50.246;14.320;2023-05-29T04:12:11;99838.03;;;8.34;74.33
77351;BME280;66420;50.246;14.320;2023-05-29T04:14:55;99843.41;;;8.39;74.40
77351;BME280;66420;50.246;14.320;2023-05-29T04:17:40;99842.06;;;8.36;74.68
77351;BME280;66420;50.246;14.320;2023-05-29T04:20:25;99845.56;;;8.42;75.12
77351;BME280;66420;50.246;14.320;2023-05-29T04:23:10;99836.16;;;8.53;73.50
77351;BME280;66420;50.246;14.320;2023-05-29T04:25:55;99837.34;;;8.47;74.13
77351;BME280;66420;50.246;14.320;2023-05-29T04:28:39;99837.53;;;8.56;74.31
77351;BME280;66420;50.246;14.320;2023-05-29T04:31:24;99846.47;;;8.61;73.35
77351;BME280;66420;50.246;14.320;2023-05-29T04:34:09;99843.50;;;8.81;72.61
77351;BME280;66420;50.246;14.320;2023-05-29T04:36:54;99844.44;;;8.96;72.49
77351;BME280;66420;50.246;14.320;2023-05-29T04:39:39;99858.38;;;8.94;72.90
77351;BME280;66420;50.246;14.320;2023-05-29T04:42:23;99861.16;;;9.13;72.06
77351;BME280;66420;50.246;14.320;2023-05-29T04:45:09;99870.22;;;9.08;71.38
77351;BME280;66420;50.246;14.320;2023-05-29T04:47:57;99877.44;;;9.23;72.07
77351;BME280;66420;50.246;14.320;2023-05-29T04:50:41;99868.34;;;9.27;70.22
77351;BME280;66420;50.246;14.320;2023-05-29T04:53:26;99877.25;;;9.38;71.02
77351;BME280;66420;50.246;14.320;2023-05-29T04:56:10;99880.16;;;9.65;69.84
77351;BME280;66420;50.246;14.320;2023-05-29T04:58:55;99881.63;;;9.76;70.07
77351;BME280;66420;50.246;14.320;2023-05-29T05:01:40;99874.31;;;9.91;69.52
77351;BME280;66420;50.246;14.320;2023-05-29T05:04:27;99878.06;;;9.95;68.98
77351;BME280;66420;50.246;14.320;2023-05-29T05:07:11;99874.16;;;10.01;69.25
77351;BME280;66420;50.246;14.320;2023-05-29T05:09:57;99873.97;;;10.16;69.07
77351;BME280;66420;50.246;14.320;2023-05-29T05:12:41;99872.97;;;10.26;68.30
77351;BME280;66420;50.246;14.320;2023-05-29T05:15:26;99877.81;;;10.47;68.14
77351;BME280;66420;50.246;14.320;2023-05-29T05:18:11;99869.41;;;10.57;67.85
77351;BME280;66420;50.246;14.320;2023-05-29T05:20:56;99871.97;;;10.68;68.44
77351;BME280;66420;50.246;14.320;2023-05-29T05:23:41;99878.59;;;10.80;67.42
77351;BME280;66420;50.246;14.320;2023-05-29T05:26:26;99877.16;;;10.83;67.42
77351;BME280;66420;50.246;14.320;2023-05-29T05:29:11;99874.31;;;10.88;67.35
77351;BME280;66420;50.246;14.320;2023-05-29T05:31:55;99878.50;;;10.99;68.08
77351;BME280;66420;50.246;14.320;2023-05-29T05:34:40;99885.81;;;11.17;66.05
77351;BME280;66420;50.246;14.320;2023-05-29T05:37:25;99883.38;;;11.29;66.47
77351;BME280;66420;50.246;14.320;2023-05-29T05:40:11;99890.97;;;11.32;66.97
77351;BME280;66420;50.246;14.320;2023-05-29T05:42:57;99890.75;;;11.42;66.52
77351;BME280;66420;50.246;14.320;2023-05-29T05:45:41;99893.28;;;11.52;66.80
77351;BME280;66420;50.246;14.320;2023-05-29T05:48:26;99890.72;;;11.70;67.08
77351;BME280;66420;50.246;14.320;2023-05-29T05:51:11;99897.25;;;11.74;66.85
77351;BME280;66420;50.246;14.320;2023-05-29T05:53:56;99896.16;;;11.97;65.98
77351;BME280;66420;50.246;14.320;2023-05-29T05:56:41;99904.22;;;12.16;65.69
77351;BME280;66420;50.246;14.320;2023-05-29T05:59:25;99904.63;;;12.23;65.64
77351;BME280;66420;50.246;14.320;2023-05-29T06:02:10;99904.19;;;12.29;65.47
77351;BME280;66420;50.246;14.320;2023-05-29T06:04:54;99900.44;;;12.48;64.33
77351;BME280;66420;50.246;14.320;2023-05-29T06:07:39;99888.56;;;12.61;63.82
77351;BME280;66420;50.246;14.320;2023-05-29T06:10:23;99889.13;;;12.71;63.68
77351;BME280;66420;50.246;14.320;2023-05-29T06:13:08;99894.69;;;12.88;64.34
77351;BME280;66420;50.246;14.320;2023-05-29T06:15:53;99904.34;;;13.08;64.55
77351;BME280;66420;50.246;14.320;2023-05-29T06:18:37;99907.47;;;13.15;63.37
77351;BME280;66420;50.246;14.320;2023-05-29T06:21:22;99898.19;;;13.34;62.93
77351;BME280;66420;50.246;14.320;2023-05-29T06:24:07;99899.53;;;13.62;61.38
77351;BME280;66420;50.246;14.320;2023-05-29T06:26:52;99906.34;;;13.73;60.54
77351;BME280;66420;50.246;14.320;2023-05-29T06:29:37;99914.94;;;13.80;60.58
77351;BME280;66420;50.246;14.320;2023-05-29T06:32:22;99908.16;;;13.86;59.85
77351;BME280;66420;50.246;14.320;2023-05-29T06:35:06;99910.44;;;14.01;60.49
77351;BME280;66420;50.246;14.320;2023-05-29T06:37:52;99913.03;;;14.24;59.84
77351;BME280;66420;50.246;14.320;2023-05-29T06:40:36;99919.00;;;14.26;58.40
77351;BME280;66420;50.246;14.320;2023-05-29T06:43:21;99918.91;;;14.48;59.59
77351;BME280;66420;50.246;14.320;2023-05-29T06:46:06;99927.13;;;14.65;58.29
77351;BME280;66420;50.246;14.320;2023-05-29T06:48:50;99919.81;;;14.78;56.39
77351;BME280;66420;50.246;14.320;2023-05-29T06:51:35;99927.03;;;14.99;58.09
77351;BME280;66420;50.246;14.320;2023-05-29T06:54:19;99921.31;;;15.13;56.04
77351;BME280;66420;50.246;14.320;2023-05-29T06:57:04;99923.25;;;15.13;55.24
77351;BME280;66420;50.246;14.320;2023-05-29T06:59:48;99933.94;;;15.23;54.21
77351;BME280;66420;50.246;14.320;2023-05-29T07:02:33;99927.38;;;15.36;53.63
77351;BME280;66420;50.246;14.320;2023-05-29T07:05:18;99922.66;;;15.54;53.21
77351;BME280;66420;50.246;14.320;2023-05-29T07:08:03;99931.59;;;15.80;54.10
77351;BME280;66420;50.246;14.320;2023-05-29T07:10:47;99925.94;;;15.97;54.41
77351;BME280;66420;50.246;14.320;2023-05-29T07:13:33;99925.69;;;16.11;53.02
77351;BME280;66420;50.246;14.320;2023-05-29T07:16:18;99923.38;;;16.33;52.49
77351;BME280;66420;50.246;14.320;2023-05-29T07:19:03;99928.41;;;16.52;52.02
77351;BME280;66420;50.246;14.320;2023-05-29T07:21:48;99926.00;;;16.71;51.34
77351;BME280;66420;50.246;14.320;2023-05-29T07:24:33;99928.34;;;16.81;51.14
77351;BME280;66420;50.246;14.320;2023-05-29T07:27:17;99921.69;;;16.95;50.76
77351;BME280;66420;50.246;14.320;2023-05-29T07:30:02;99922.13;;;16.97;47.73
77351;BME280;66420;50.246;14.320;2023-05-29T07:32:48;99921.50;;;17.24;49.51
77351;BME280;66420;50.246;14.320;2023-05-29T07:35:32;99922.31;;;17.24;47.51
77351;BME280;66420;50.246;14.320;2023-05-29T07:38:18;99921.06;;;17.22;46.25
77351;BME280;66420;50.246;14.320;2023-05-29T07:41:03;99924.84;;;17.42;48.33
77351;BME280;66420;50.246;14.320;2023-05-29T07:43:47;99923.50;;;17.72;46.95
77351;BME280;66420;50.246;14.320;2023-05-29T07:46:36;99913.69;;;17.87;42.95
77351;BME280;66420;50.246;14.320;2023-05-29T07:49:21;99916.88;;;18.13;45.79
77351;BME280;66420;50.246;14.320;2023-05-29T07:52:06;99911.69;;;18.39;44.53
77351;BME280;66420;50.246;14.320;2023-05-29T07:54:52;99914.91;;;18.53;43.07
77351;BME280;66420;50.246;14.320;2023-05-29T07:57:36;99917.63;;;18.66;41.20
77351;BME280;66420;50.246;14.320;2023-05-29T08:00:21;99921.25;;;18.82;41.09
77351;BME280;66420;50.246;14.320;2023-05-29T08:03:06;99920.53;;;18.85;40.50
77351;BME280;66420;50.246;14.320;2023-05-29T08:05:50;99920.06;;;19.11;41.89
77351;BME280;66420;50.246;14.320;2023-05-29T08:08:35;99924.53;;;19.15;38.71
77351;BME280;66420;50.246;14.320;2023-05-29T08:11:21;99919.22;;;19.26;39.65
77351;BME280;66420;50.246;14.320;2023-05-29T08:14:06;99919.97;;;19.38;39.34
77351;BME280;66420;50.246;14.320;2023-05-29T08:16:51;99926.88;;;19.44;39.07
77351;BME280;66420;50.246;14.320;2023-05-29T08:19:36;99924.44;;;19.43;37.29
77351;BME280;66420;50.246;14.320;2023-05-29T08:22:27;99925.44;;;19.51;38.81
77351;BME280;66420;50.246;14.320;2023-05-29T08:25:12;99930.69;;;19.87;39.36
77351;BME280;66420;50.246;14.320;2023-05-29T08:27:57;99935.75;;;19.66;39.64
77351;BME280;66420;50.246;14.320;2023-05-29T08:30:42;99929.13;;;20.05;36.54
77351;BME280;66420;50.246;14.320;2023-05-29T08:33:27;99923.53;;;20.21;39.00
77351;BME280;66420;50.246;14.320;2023-05-29T08:36:11;99930.94;;;20.52;40.28
77351;BME280;66420;50.246;14.320;2023-05-29T08:38:56;99926.56;;;20.70;38.02
77351;BME280;66420;50.246;14.320;2023-05-29T08:44:46;99921.53;;;20.98;37.97
77351;BME280;66420;50.246;14.320;2023-05-29T08:47:33;99920.78;;;21.01;39.65
77351;BME280;66420;50.246;14.320;2023-05-29T08:50:19;99924.06;;;21.07;37.62
77351;BME280;66420;50.246;14.320;2023-05-29T08:53:04;99927.09;;;20.98;37.29
77351;BME280;66420;50.246;14.320;2023-05-29T08:55:50;99911.06;;;21.34;37.31
77351;BME280;66420;50.246;14.320;2023-05-29T08:58:37;99916.66;;;21.60;37.71
77351;BME280;66420;50.246;14.320;2023-05-29T09:01:23;99917.25;;;21.73;37.05
77351;BME280;66420;50.246;14.320;2023-05-29T09:04:08;99919.91;;;21.16;36.25
77351;BME280;66420;50.246;14.320;2023-05-29T09:06:53;99921.69;;;21.51;36.50
77351;BME280;66420;50.246;14.320;2023-05-29T09:09:40;99929.50;;;21.42;34.92
77351;BME280;66420;50.246;14.320;2023-05-29T09:12:25;99927.25;;;21.77;36.86
77351;BME280;66420;50.246;14.320;2023-05-29T09:15:20;99921.03;;;22.10;38.20
77351;BME280;66420;50.246;14.320;2023-05-29T09:18:06;99916.72;;;21.41;34.23
77351;BME280;66420;50.246;14.320;2023-05-29T09:20:50;99921.69;;;21.77;35.02
77351;BME280;66420;50.246;14.320;2023-05-29T09:23:36;99932.31;;;22.21;35.98
77351;BME280;66420;50.246;14.320;2023-05-29T09:26:21;99922.63;;;21.58;32.41
77351;BME280;66420;50.246;14.320;2023-05-29T09:29:07;99921.38;;;21.82;33.33
77351;BME280;66420;50.246;14.320;2023-05-29T09:31:53;99920.50;;;21.52;35.55
77351;BME280;66420;50.246;14.320;2023-05-29T09:34:38;99924.63;;;20.93;32.84
77351;BME280;66420;50.246;14.320;2023-05-29T09:37:23;99918.56;;;21.30;35.47
77351;BME280;66420;50.246;14.320;2023-05-29T09:40:10;99931.72;;;21.82;34.47
77351;BME280;66420;50.246;14.320;2023-05-29T09:42:55;99925.50;;;21.92;32.28
77351;BME280;66420;50.246;14.320;2023-05-29T09:45:41;99923.16;;;21.67;33.18
77351;BME280;66420;50.246;14.320;2023-05-29T09:48:26;99933.56;;;21.97;33.47
77351;BME280;66420;50.246;14.320;2023-05-29T09:51:23;99915.81;;;22.38;33.23
77351;BME280;66420;50.246;14.320;2023-05-29T09:54:16;99927.53;;;22.51;36.08
77351;BME280;66420;50.246;14.320;2023-05-29T09:57:01;99919.47;;;22.72;33.56
77351;BME280;66420;50.246;14.320;2023-05-29T09:59:49;99917.19;;;22.81;33.10
77351;BME280;66420;50.246;14.320;2023-05-29T10:02:36;99910.81;;;22.84;34.15
77351;BME280;66420;50.246;14.320;2023-05-29T10:05:21;99915.75;;;22.98;33.76
77351;BME280;66420;50.246;14.320;2023-05-29T10:08:12;99909.63;;;23.22;32.91
77351;BME280;66420;50.246;14.320;2023-05-29T10:11:01;99914.38;;;23.18;31.09
77351;BME280;66420;50.246;14.320;2023-05-29T10:13:54;99916.00;;;23.23;32.58
77351;BME280;66420;50.246;14.320;2023-05-29T10:16:42;99905.66;;;23.23;33.59
77351;BME280;66420;50.246;14.320;2023-05-29T10:19:29;99912.88;;;23.28;32.32
77351;BME280;66420;50.246;14.320;2023-05-29T10:22:18;99906.03;;;23.22;33.66
77351;BME280;66420;50.246;14.320;2023-05-29T10:25:05;99899.25;;;23.23;31.35
77351;BME280;66420;50.246;14.320;2023-05-29T10:27:50;99905.53;;;23.53;32.78
77351;BME280;66420;50.246;14.320;2023-05-29T10:31:01;99897.22;;;23.64;31.00
77351;BME280;66420;50.246;14.320;2023-05-29T10:34:14;99899.47;;;23.44;32.52
77351;BME280;66420;50.246;14.320;2023-05-29T10:40:08;99897.59;;;23.62;34.37
77351;BME280;66420;50.246;14.320;2023-05-29T10:42:57;99895.81;;;23.88;31.00
77351;BME280;66420;50.246;14.320;2023-05-29T10:48:36;99879.66;;;23.63;30.13
77351;BME280;66420;50.246;14.320;2023-05-29T10:51:25;99881.25;;;23.64;30.82
77351;BME280;66420;50.246;14.320;2023-05-29T10:54:10;99885.13;;;24.11;33.15
77351;BME280;66420;50.246;14.320;2023-05-29T10:56:56;99885.84;;;23.94;28.86
77351;BME280;66420;50.246;14.320;2023-05-29T10:59:44;99879.13;;;24.05;28.86
77351;BME280;66420;50.246;14.320;2023-05-29T11:02:29;99878.59;;;23.85;28.09
77351;BME280;66420;50.246;14.320;2023-05-29T11:05:21;99871.56;;;24.13;29.33
77351;BME280;66420;50.246;14.320;2023-05-29T11:08:07;99864.16;;;23.76;28.71
77351;BME280;66420;50.246;14.320;2023-05-29T11:10:58;99867.56;;;24.10;30.21
77351;BME280;66420;50.246;14.320;2023-05-29T11:13:52;99862.44;;;24.19;31.46
77351;BME280;66420;50.246;14.320;2023-05-29T11:16:37;99854.50;;;24.39;32.17
77351;BME280;66420;50.246;14.320;2023-05-29T11:19:22;99859.56;;;24.09;27.51
77351;BME280;66420;50.246;14.320;2023-05-29T11:22:14;99862.91;;;23.67;30.11
77351;BME280;66420;50.246;14.320;2023-05-29T11:25:04;99859.03;;;23.89;29.67
77351;BME280;66420;50.246;14.320;2023-05-29T11:27:49;99856.97;;;23.72;29.55
77351;BME280;66420;50.246;14.320;2023-05-29T11:30:47;99861.25;;;23.59;29.63
77351;BME280;66420;50.246;14.320;2023-05-29T11:33:31;99856.72;;;24.02;32.79
77351;BME280;66420;50.246;14.320;2023-05-29T11:36:18;99856.69;;;23.98;28.11
77351;BME280;66420;50.246;14.320;2023-05-29T11:39:05;99861.00;;;23.81;30.47
77351;BME280;66420;50.246;14.320;2023-05-29T11:41:51;99865.34;;;23.75;29.34
77351;BME280;66420;50.246;14.320;2023-05-29T11:44:39;99863.22;;;24.16;31.53
77351;BME280;66420;50.246;14.320;2023-05-29T11:47:23;99854.06;;;24.26;29.77
77351;BME280;66420;50.246;14.320;2023-05-29T11:50:22;99860.53;;;24.45;29.93
77351;BME280;66420;50.246;14.320;2023-05-29T11:53:07;99854.56;;;24.53;29.01
77351;BME280;66420;50.246;14.320;2023-05-29T11:55:52;99851.06;;;23.88;29.44
77351;BME280;66420;50.246;14.320;2023-05-29T11:58:38;99858.38;;;24.10;28.96
77351;BME280;66420;50.246;14.320;2023-05-29T12:01:24;99855.38;;;24.50;30.67
77351;BME280;66420;50.246;14.320;2023-05-29T12:04:15;99858.50;;;24.35;28.58
77351;BME280;66420;50.246;14.320;2023-05-29T12:07:00;99845.41;;;24.70;29.93
77351;BME280;66420;50.246;14.320;2023-05-29T12:09:45;99838.19;;;24.55;28.62
77351;BME280;66420;50.246;14.320;2023-05-29T12:12:33;99836.16;;;24.52;28.81
77351;BME280;66420;50.246;14.320;2023-05-29T12:15:19;99842.22;;;24.65;28.97
77351;BME280;66420;50.246;14.320;2023-05-29T12:18:04;99830.19;;;24.47;30.85
77351;BME280;66420;50.246;14.320;2023-05-29T12:20:49;99826.19;;;24.58;30.55
77351;BME280;66420;50.246;14.320;2023-05-29T12:23:34;99840.22;;;24.72;28.79
77351;BME280;66420;50.246;14.320;2023-05-29T12:26:22;99833.84;;;24.83;29.68
77351;BME280;66420;50.246;14.320;2023-05-29T12:29:08;99831.81;;;24.72;28.42
77351;BME280;66420;50.246;14.320;2023-05-29T12:32:02;99831.97;;;24.07;29.17
77351;BME280;66420;50.246;14.320;2023-05-29T12:34:50;99830.34;;;23.96;32.37
77351;BME280;66420;50.246;14.320;2023-05-29T12:37:35;99827.00;;;24.59;30.07
77351;BME280;66420;50.246;14.320;2023-05-29T12:40:23;99819.78;;;24.58;28.39
77351;BME280;66420;50.246;14.320;2023-05-29T12:43:09;99816.25;;;24.82;31.52
77351;BME280;66420;50.246;14.320;2023-05-29T12:45:55;99826.63;;;24.85;29.14
77351;BME280;66420;50.246;14.320;2023-05-29T12:48:42;99822.25;;;23.80;30.28
77351;BME280;66420;50.246;14.320;2023-05-29T12:51:27;99822.50;;;24.19;29.11
77351;BME280;66420;50.246;14.320;2023-05-29T12:54:16;99817.41;;;24.56;29.80
77351;BME280;66420;50.246;14.320;2023-05-29T12:57:01;99814.19;;;24.47;31.32
77351;BME280;66420;50.246;14.320;2023-05-29T12:59:46;99827.44;;;24.86;30.90
77351;BME280;66420;50.246;14.320;2023-05-29T13:02:32;99825.09;;;24.91;30.84
77351;BME280;66420;50.246;14.320;2023-05-29T13:05:16;99812.84;;;24.13;31.55
77351;BME280;66420;50.246;14.320;2023-05-29T13:08:03;99812.53;;;24.32;30.43
77351;BME280;66420;50.246;14.320;2023-05-29T13:10:51;99809.84;;;24.82;29.56
77351;BME280;66420;50.246;14.320;2023-05-29T13:13:36;99815.03;;;24.80;31.57
77351;BME280;66420;50.246;14.320;2023-05-29T13:16:21;99809.63;;;24.11;29.20
77351;BME280;66420;50.246;14.320;2023-05-29T13:19:06;99811.00;;;24.56;31.72
77351;BME280;66420;50.246;14.320;2023-05-29T13:21:51;99801.91;;;25.05;30.14
77351;BME280;66420;50.246;14.320;2023-05-29T13:24:36;99809.09;;;24.88;31.09
77351;BME280;66420;50.246;14.320;2023-05-29T13:27:21;99804.97;;;24.43;27.49
77351;BME280;66420;50.246;14.320;2023-05-29T13:30:06;99798.66;;;24.78;29.36
77351;BME280;66420;50.246;14.320;2023-05-29T13:32:52;99800.28;;;24.93;31.05
77351;BME280;66420;50.246;14.320;2023-05-29T13:35:37;99798.28;;;25.04;31.52
77351;BME280;66420;50.246;14.320;2023-05-29T13:38:22;99792.19;;;24.42;30.92
77351;BME280;66420;50.246;14.320;2023-05-29T13:41:06;99796.22;;;24.66;30.28
77351;BME280;66420;50.246;14.320;2023-05-29T13:43:51;99789.34;;;24.32;29.41
77351;BME280;66420;50.246;14.320;2023-05-29T13:49:04;99788.97;;;24.44;32.16
77351;BME280;66420;50.246;14.320;2023-05-29T13:51:49;99780.22;;;24.56;29.54
77351;BME280;66420;50.246;14.320;2023-05-29T13:54:33;99772.19;;;24.40;29.90
77351;BME280;66420;50.246;14.320;2023-05-29T13:57:21;99780.16;;;24.31;30.43
77351;BME280;66420;50.246;14.320;2023-05-29T14:00:07;99782.88;;;24.13;29.76
77351;BME280;66420;50.246;14.320;2023-05-29T14:02:52;99773.75;;;24.23;28.86
77351;BME280;66420;50.246;14.320;2023-05-29T14:05:36;99768.22;;;24.48;31.34
77351;BME280;66420;50.246;14.320;2023-05-29T14:08:21;99758.66;;;24.56;29.56
77351;BME280;66420;50.246;14.320;2023-05-29T14:11:06;99765.78;;;24.43;31.59
77351;BME280;66420;50.246;14.320;2023-05-29T14:13:51;99773.00;;;24.37;30.81
77351;BME280;66420;50.246;14.320;2023-05-29T14:16:35;99772.22;;;24.54;31.59
77351;BME280;66420;50.246;14.320;2023-05-29T14:19:20;99761.34;;;24.21;29.72
77351;BME280;66420;50.246;14.320;2023-05-29T14:22:05;99771.34;;;24.22;32.28
77351;BME280;66420;50.246;14.320;2023-05-29T14:24:50;99769.16;;;23.83;28.52
77351;BME280;66420;50.246;14.320;2023-05-29T14:27:35;99761.38;;;23.45;29.11
77351;BME280;66420;50.246;14.320;2023-05-29T14:30:19;99763.78;;;23.47;28.80
77351;BME280;66420;50.246;14.320;2023-05-29T14:33:04;99765.09;;;23.70;31.87
77351;BME280;66420;50.246;14.320;2023-05-29T14:35:49;99761.56;;;23.84;33.05
77351;BME280;66420;50.246;14.320;2023-05-29T14:38:33;99762.50;;;24.06;30.99
77351;BME280;66420;50.246;14.320;2023-05-29T14:41:19;99765.63;;;23.94;30.81
77351;BME280;66420;50.246;14.320;2023-05-29T14:44:04;99764.44;;;24.02;30.72
77351;BME280;66420;50.246;14.320;2023-05-29T14:46:49;99758.91;;;24.12;31.32
77351;BME280;66420;50.246;14.320;2023-05-29T14:49:33;99756.91;;;24.06;30.47
77351;BME280;66420;50.246;14.320;2023-05-29T14:52:18;99757.59;;;23.89;29.31